sensor_id;sensor_type;location;lat;lon;timestamp;pressure;altitude;pressure_sealevel;temperature;humidity
15604;BME280;7902;49.042;9.092;2023-02-01T00:02:00;99709.75;;;9.37;61.46
15604;BME280;7902;49.042;9.092;2023-02-01T00:04:26;99700.09;;;9.37;60.87
15604;BME280;7902;49.042;9.092;2023-02-01T00:06:52;99705.38;;;9.21;61.49
15604;BME280;7902;49.042;9.092;2023-02-01T00:09:18;99713.84;;;9.27;61.60
15604;BME280;7902;49.042;9.092;2023-02-01T00:11:44;99706.91;;;9.25;61.74
15604;BME280;7902;49.042;9.092;2023-02-01T00:14:10;99697.94;;;9.30;61.69
15604;BME280;7902;49.042;9.092;2023-02-01T00:16:36;99703.69;;;9.20;61.44
15604;BME280;7902;49.042;9.092;2023-02-01T00:19:09;99707.13;;;9.37;61.13
15604;BME280;7902;49.042;9.092;2023-02-01T00:21:35;99706.13;;;9.23;61.85
15604;BME280;7902;49.042;9.092;2023-02-01T00:24:02;99705.38;;;9.21;62.13
15604;BME280;7902;49.042;9.092;2023-02-01T00:26:39;99691.28;;;9.38;61.83
15604;BME280;7902;49.042;9.092;2023-02-01T00:29:09;99681.66;;;9.39;61.81
15604;BME280;7902;49.042;9.092;2023-02-01T00:31:36;99666.97;;;9.36;61.87
15604;BME280;7902;49.042;9.092;2023-02-01T00:34:02;99662.66;;;9.35;61.57
15604;BME280;7902;49.042;9.092;2023-02-01T00:36:28;99645.00;;;9.23;62.26
15604;BME280;7902;49.042;9.092;2023-02-01T00:38:55;99649.25;;;9.25;61.90
15604;BME280;7902;49.042;9.092;2023-02-01T00:41:22;99623.16;;;9.38;61.73
15604;BME280;7902;49.042;9.092;2023-02-01T00:43:50;99629.03;;;9.27;61.67
15604;BME280;7902;49.042;9.092;2023-02-01T00:46:18;99621.09;;;9.43;61.83
15604;BME280;7902;49.042;9.092;2023-02-01T00:48:44;99633.47;;;9.41;61.51
15604;BME280;7902;49.042;9.092;2023-02-01T00:51:29;99624.19;;;9.36;61.36
15604;BME280;7902;49.042;9.092;2023-02-01T00:53:56;99630.56;;;9.32;61.35
15604;BME280;7902;49.042;9.092;2023-02-01T00:56:22;99619.69;;;9.38;61.12
15604;BME280;7902;49.042;9.092;2023-02-01T00:58:48;99626.44;;;9.42;61.45
15604;BME280;7902;49.042;9.092;2023-02-01T01:01:19;99619.69;;;9.38;61.24
15604;BME280;7902;49.042;9.092;2023-02-01T01:03:50;99626.13;;;9.18;61.67
15604;BME280;7902;49.042;9.092;2023-02-01T01:06:21;99635.03;;;9.30;61.91
15604;BME280;7902;49.042;9.092;2023-02-01T01:08:47;99629.75;;;9.15;62.63
15604;BME280;7902;49.042;9.092;2023-02-01T01:11:16;99632.78;;;9.38;61.93
15604;BME280;7902;49.042;9.092;2023-02-01T01:13:43;99653.03;;;9.36;61.44
15604;BME280;7902;49.042;9.092;2023-02-01T01:16:10;99662.03;;;9.46;61.11
15604;BME280;7902;49.042;9.092;2023-02-01T01:18:36;99653.88;;;9.36;61.55
15604;BME280;7902;49.042;9.092;2023-02-01T01:21:04;99654.72;;;9.37;61.82
15604;BME280;7902;49.042;9.092;2023-02-01T01:23:31;99647.97;;;9.47;61.83
15604;BME280;7902;49.042;9.092;2023-02-01T01:25:57;99655.94;;;9.45;61.65
15604;BME280;7902;49.042;9.092;2023-02-01T01:28:23;99648.50;;;9.38;61.42
15604;BME280;7902;49.042;9.092;2023-02-01T01:30:49;99662.38;;;9.40;62.02
15604;BME280;7902;49.042;9.092;2023-02-01T01:33:15;99656.97;;;9.57;61.15
15604;BME280;7902;49.042;9.092;2023-02-01T01:35:41;99661.06;;;9.47;61.88
15604;BME280;7902;49.042;9.092;2023-02-01T01:38:09;99659.50;;;9.44;61.34
15604;BME280;7902;49.042;9.092;2023-02-01T01:40:35;99669.44;;;9.53;60.96
15604;BME280;7902;49.042;9.092;2023-02-01T01:43:01;99668.28;;;9.43;62.05
15604;BME280;7902;49.042;9.092;2023-02-01T01:45:29;99670.47;;;9.51;61.77
15604;BME280;7902;49.042;9.092;2023-02-01T01:48:02;99663.44;;;9.51;61.29
15604;BME280;7902;49.042;9.092;2023-02-01T01:50:44;99662.78;;;9.62;60.65
15604;BME280;7902;49.042;9.092;2023-02-01T01:53:18;99661.69;;;9.66;60.81
15604;BME280;7902;49.042;9.092;2023-02-01T01:55:47;99666.59;;;9.42;61.86
15604;BME280;7902;49.042;9.092;2023-02-01T01:58:19;99664.25;;;9.38;61.60
15604;BME280;7902;49.042;9.092;2023-02-01T02:00:47;99652.94;;;9.51;61.14
15604;BME280;7902;49.042;9.092;2023-02-01T02:03:20;99665.97;;;9.53;61.49
15604;BME280;7902;49.042;9.092;2023-02-01T02:05:49;99636.94;;;9.70;61.35
15604;BME280;7902;49.042;9.092;2023-02-01T02:08:18;99637.31;;;9.50;61.63
15604;BME280;7902;49.042;9.092;2023-02-01T02:10:50;99628.34;;;9.54;61.35
15604;BME280;7902;49.042;9.092;2023-02-01T02:13:46;99614.47;;;9.52;61.46
15604;BME280;7902;49.042;9.092;2023-02-01T02:18:57;99599.13;;;9.46;62.44
15604;BME280;7902;49.042;9.092;2023-02-01T02:30:13;99607.84;;;9.60;61.58
15604;BME280;7902;49.042;9.092;2023-02-01T02:33:21;99610.34;;;9.48;61.62
15604;BME280;7902;49.042;9.092;2023-02-01T02:41:27;99589.94;;;9.53;62.04
15604;BME280;7902;49.042;9.092;2023-02-01T02:44:27;99559.91;;;9.58;61.10
15604;BME280;7902;49.042;9.092;2023-02-01T02:47:23;99571.03;;;9.48;60.99
15604;BME280;7902;49.042;9.092;2023-02-01T02:53:04;99563.72;;;9.53;61.04
15604;BME280;7902;49.042;9.092;2023-02-01T02:55:57;99562.44;;;9.60;61.23
15604;BME280;7902;49.042;9.092;2023-02-01T02:58:43;99550.06;;;9.48;60.86
15604;BME280;7902;49.042;9.092;2023-02-01T03:01:29;99535.81;;;9.52;61.53
15604;BME280;7902;49.042;9.092;2023-02-01T03:04:14;99540.91;;;9.41;61.51
15604;BME280;7902;49.042;9.092;2023-02-01T03:06:44;99533.38;;;9.63;61.10
15604;BME280;7902;49.042;9.092;2023-02-01T03:09:26;99524.19;;;9.56;61.10
15604;BME280;7902;49.042;9.092;2023-02-01T03:11:59;99543.69;;;9.66;60.84
15604;BME280;7902;49.042;9.092;2023-02-01T03:14:48;99544.81;;;9.62;61.46
15604;BME280;7902;49.042;9.092;2023-02-01T03:17:20;99546.97;;;9.69;60.72
15604;BME280;7902;49.042;9.092;2023-02-01T03:19:50;99553.53;;;9.62;60.96
15604;BME280;7902;49.042;9.092;2023-02-01T03:22:20;99569.53;;;9.72;61.33
15604;BME280;7902;49.042;9.092;2023-02-01T03:24:54;99570.47;;;9.71;60.95
15604;BME280;7902;49.042;9.092;2023-02-01T03:30:26;99583.78;;;9.54;61.52
15604;BME280;7902;49.042;9.092;2023-02-01T03:32:56;99578.16;;;9.60;60.47
15604;BME280;7902;49.042;9.092;2023-02-01T03:35:41;99585.84;;;9.63;60.57
15604;BME280;7902;49.042;9.092;2023-02-01T03:40:58;99584.91;;;9.78;60.82
15604;BME280;7902;49.042;9.092;2023-02-01T03:43:29;99578.34;;;9.71;60.86
15604;BME280;7902;49.042;9.092;2023-02-01T03:46:03;99568.13;;;9.52;61.76
15604;BME280;7902;49.042;9.092;2023-02-01T03:48:31;99556.97;;;9.77;60.80
15604;BME280;7902;49.042;9.092;2023-02-01T03:51:00;99550.63;;;9.53;60.36
15604;BME280;7902;49.042;9.092;2023-02-01T03:53:27;99528.13;;;9.77;60.79
15604;BME280;7902;49.042;9.092;2023-02-01T03:55:54;99528.69;;;9.82;60.46
15604;BME280;7902;49.042;9.092;2023-02-01T03:58:22;99534.88;;;9.81;60.36
15604;BME280;7902;49.042;9.092;2023-02-01T04:00:59;99541.81;;;9.68;60.19
15604;BME280;7902;49.042;9.092;2023-02-01T04:03:27;99551.94;;;9.74;60.76
15604;BME280;7902;49.042;9.092;2023-02-01T04:05:53;99564.09;;;9.75;60.55
15604;BME280;7902;49.042;9.092;2023-02-01T04:08:20;99566.69;;;9.89;60.08
15604;BME280;7902;49.042;9.092;2023-02-01T04:10:46;99564.09;;;9.75;60.38
15604;BME280;7902;49.042;9.092;2023-02-01T04:13:12;99574.41;;;9.78;59.77
15604;BME280;7902;49.042;9.092;2023-02-01T04:15:39;99572.81;;;9.61;60.40
15604;BME280;7902;49.042;9.092;2023-02-01T04:18:05;99576.00;;;9.66;60.50
15604;BME280;7902;49.042;9.092;2023-02-01T04:20:31;99580.09;;;9.70;60.37
15604;BME280;7902;49.042;9.092;2023-02-01T04:22:57;99601.94;;;9.71;59.73
15604;BME280;7902;49.042;9.092;2023-02-01T04:25:23;99604.56;;;9.71;60.62
15604;BME280;7902;49.042;9.092;2023-02-01T04:27:49;99610.00;;;9.68;60.10
15604;BME280;7902;49.042;9.092;2023-02-01T04:30:15;99589.03;;;9.82;59.81
15604;BME280;7902;49.042;9.092;2023-02-01T04:32:41;99574.84;;;9.85;59.88
15604;BME280;7902;49.042;9.092;2023-02-01T04:35:08;99572.41;;;9.96;60.31
15604;BME280;7902;49.042;9.092;2023-02-01T04:37:34;99571.88;;;9.77;60.06
15604;BME280;7902;49.042;9.092;2023-02-01T04:40:00;99565.69;;;9.78;60.69
15604;BME280;7902;49.042;9.092;2023-02-01T04:42:26;99558.94;;;9.88;60.63
15604;BME280;7902;49.042;9.092;2023-02-01T04:44:52;99546.13;;;9.69;59.99
15604;BME280;7902;49.042;9.092;2023-02-01T04:47:18;99567.69;;;9.74;59.99
15604;BME280;7902;49.042;9.092;2023-02-01T04:49:44;99555.28;;;9.90;59.82
15604;BME280;7902;49.042;9.092;2023-02-01T04:52:10;99572.91;;;9.88;59.33
15604;BME280;7902;49.042;9.092;2023-02-01T04:54:36;99570.75;;;9.81;59.76
15604;BME280;7902;49.042;9.092;2023-02-01T04:57:01;99557.81;;;9.92;59.84
15604;BME280;7902;49.042;9.092;2023-02-01T04:59:28;99554.34;;;9.91;59.10
15604;BME280;7902;49.042;9.092;2023-02-01T05:01:54;99561.09;;;9.95;59.59
15604;BME280;7902;49.042;9.092;2023-02-01T05:04:20;99563.44;;;9.86;59.80
15604;BME280;7902;49.042;9.092;2023-02-01T05:06:46;99559.53;;;9.79;60.00
15604;BME280;7902;49.042;9.092;2023-02-01T05:09:12;99570.59;;;9.69;59.85
15604;BME280;7902;49.042;9.092;2023-02-01T05:11:38;99565.03;;;9.88;60.18
15604;BME280;7902;49.042;9.092;2023-02-01T05:14:22;99555.47;;;9.87;59.30
15604;BME280;7902;49.042;9.092;2023-02-01T05:16:48;99572.81;;;9.61;60.50
15604;BME280;7902;49.042;9.092;2023-02-01T05:19:14;99559.41;;;9.80;59.91
15604;BME280;7902;49.042;9.092;2023-02-01T05:21:40;99548.91;;;9.94;58.88
15604;BME280;7902;49.042;9.092;2023-02-01T05:24:07;99546.50;;;9.77;60.02
15604;BME280;7902;49.042;9.092;2023-02-01T05:26:42;99546.69;;;9.74;60.17
15604;BME280;7902;49.042;9.092;2023-02-01T05:29:09;99547.06;;;9.68;60.23
15604;BME280;7902;49.042;9.092;2023-02-01T05:31:35;99547.25;;;9.79;59.42
15604;BME280;7902;49.042;9.092;2023-02-01T05:34:01;99556.78;;;9.66;60.11
15604;BME280;7902;49.042;9.092;2023-02-01T05:36:27;99563.91;;;9.78;60.02
15604;BME280;7902;49.042;9.092;2023-02-01T05:38:53;99569.53;;;9.58;60.22
15604;BME280;7902;49.042;9.092;2023-02-01T05:41:19;99596.81;;;9.69;60.25
15604;BME280;7902;49.042;9.092;2023-02-01T05:43:45;99603.91;;;9.67;60.43
15604;BME280;7902;49.042;9.092;2023-02-01T05:46:11;99605.19;;;9.75;60.73
15604;BME280;7902;49.042;9.092;2023-02-01T05:48:41;99592.84;;;9.77;60.22
15604;BME280;7902;49.042;9.092;2023-02-01T05:51:08;99597.63;;;9.84;60.29
15604;BME280;7902;49.042;9.092;2023-02-01T05:53:34;99599.50;;;9.82;59.48
15604;BME280;7902;49.042;9.092;2023-02-01T05:56:01;99611.69;;;9.69;60.20
15604;BME280;7902;49.042;9.092;2023-02-01T05:58:27;99606.44;;;9.69;60.04
15604;BME280;7902;49.042;9.092;2023-02-01T06:00:53;99595.75;;;9.72;60.30
15604;BME280;7902;49.042;9.092;2023-02-01T06:03:19;99605.69;;;9.67;60.28
15604;BME280;7902;49.042;9.092;2023-02-01T06:05:47;99595.84;;;9.56;60.50
15604;BME280;7902;49.042;9.092;2023-02-01T06:08:13;99588.44;;;9.77;59.99
15604;BME280;7902;49.042;9.092;2023-02-01T06:10:39;99595.84;;;9.70;61.14
15604;BME280;7902;49.042;9.092;2023-02-01T06:13:05;99602.13;;;9.68;60.41
15604;BME280;7902;49.042;9.092;2023-02-01T06:15:31;99601.56;;;9.63;61.48
15604;BME280;7902;49.042;9.092;2023-02-01T06:17:59;99594.91;;;9.86;60.88
15604;BME280;7902;49.042;9.092;2023-02-01T06:20:25;99587.41;;;9.80;61.01
15604;BME280;7902;49.042;9.092;2023-02-01T06:22:51;99576.63;;;9.84;60.36
15604;BME280;7902;49.042;9.092;2023-02-01T06:25:18;99579.75;;;9.77;60.46
15604;BME280;7902;49.042;9.092;2023-02-01T06:27:44;99573.56;;;9.78;60.93
15604;BME280;7902;49.042;9.092;2023-02-01T06:30:11;99583.22;;;9.77;60.50
15604;BME280;7902;49.042;9.092;2023-02-01T06:32:40;99595.38;;;9.64;60.61
15604;BME280;7902;49.042;9.092;2023-02-01T06:35:08;99591.72;;;9.66;61.68
15604;BME280;7902;49.042;9.092;2023-02-01T06:37:36;99593.97;;;9.58;61.63
15604;BME280;7902;49.042;9.092;2023-02-01T06:40:03;99588.09;;;9.83;61.59
15604;BME280;7902;49.042;9.092;2023-02-01T06:42:29;99587.13;;;9.70;61.43
15604;BME280;7902;49.042;9.092;2023-02-01T06:44:55;99593.22;;;9.70;61.59
15604;BME280;7902;49.042;9.092;2023-02-01T06:47:21;99592.00;;;9.90;61.08
15604;BME280;7902;49.042;9.092;2023-02-01T06:49:46;99607.75;;;9.62;61.77
15604;BME280;7902;49.042;9.092;2023-02-01T06:52:12;99596.13;;;9.66;61.79
15604;BME280;7902;49.042;9.092;2023-02-01T06:54:38;99611.28;;;9.75;61.28
15604;BME280;7902;49.042;9.092;2023-02-01T06:57:04;99619.34;;;9.58;62.32
15604;BME280;7902;49.042;9.092;2023-02-01T06:59:30;99615.44;;;9.65;62.19
15604;BME280;7902;49.042;9.092;2023-02-01T07:01:56;99615.53;;;9.78;61.09
15604;BME280;7902;49.042;9.092;2023-02-01T07:04:22;99613.56;;;9.81;61.03
15604;BME280;7902;49.042;9.092;2023-02-01T07:06:48;99620.69;;;9.65;61.67
15604;BME280;7902;49.042;9.092;2023-02-01T07:09:13;99643.16;;;9.69;62.12
15604;BME280;7902;49.042;9.092;2023-02-01T07:11:39;99641.91;;;9.75;61.80
15604;BME280;7902;49.042;9.092;2023-02-01T07:14:09;99652.31;;;9.76;62.49
15604;BME280;7902;49.042;9.092;2023-02-01T07:16:36;99626.47;;;9.84;62.00
15604;BME280;7902;49.042;9.092;2023-02-01T07:19:03;99626.47;;;9.70;61.97
15604;BME280;7902;49.042;9.092;2023-02-01T07:21:29;99637.06;;;9.68;62.38
15604;BME280;7902;49.042;9.092;2023-02-01T07:23:55;99638.94;;;9.66;61.45
15604;BME280;7902;49.042;9.092;2023-02-01T07:26:21;99648.56;;;9.80;61.45
15604;BME280;7902;49.042;9.092;2023-02-01T07:28:47;99636.69;;;9.75;61.59
15604;BME280;7902;49.042;9.092;2023-02-01T07:31:16;99644.09;;;9.82;62.14
15604;BME280;7902;49.042;9.092;2023-02-01T07:33:44;99653.66;;;9.69;62.26
15604;BME280;7902;49.042;9.092;2023-02-01T07:36:16;99672.84;;;9.69;61.86
15604;BME280;7902;49.042;9.092;2023-02-01T07:38:42;99642.97;;;9.72;62.33
15604;BME280;7902;49.042;9.092;2023-02-01T07:41:09;99646.78;;;9.66;62.44
15604;BME280;7902;49.042;9.092;2023-02-01T07:43:35;99653.38;;;9.74;62.44
15604;BME280;7902;49.042;9.092;2023-02-01T07:46:02;99646.16;;;9.91;61.38
15604;BME280;7902;49.042;9.092;2023-02-01T07:48:30;99647.00;;;9.78;62.41
15604;BME280;7902;49.042;9.092;2023-02-01T07:51:00;99646.34;;;9.74;62.02
15604;BME280;7902;49.042;9.092;2023-02-01T07:53:29;99641.66;;;9.79;62.80
15604;BME280;7902;49.042;9.092;2023-02-01T07:55:55;99640.06;;;9.77;61.87
15604;BME280;7902;49.042;9.092;2023-02-01T07:58:22;99630.63;;;9.74;61.87
15604;BME280;7902;49.042;9.092;2023-02-01T08:00:48;99627.41;;;9.69;62.84
15604;BME280;7902;49.042;9.092;2023-02-01T08:03:33;99612.53;;;9.84;61.88
15604;BME280;7902;49.042;9.092;2023-02-01T08:05:59;99600.16;;;9.72;61.85
15604;BME280;7902;49.042;9.092;2023-02-01T08:08:25;99591.16;;;9.61;62.37
15604;BME280;7902;49.042;9.092;2023-02-01T08:10:57;99593.50;;;9.52;62.86
15604;BME280;7902;49.042;9.092;2023-02-01T08:13:23;99610.00;;;9.68;63.02
15604;BME280;7902;49.042;9.092;2023-02-01T08:15:49;99611.28;;;9.61;62.34
15604;BME280;7902;49.042;9.092;2023-02-01T08:18:15;99615.97;;;9.70;61.85
15604;BME280;7902;49.042;9.092;2023-02-01T08:20:46;99613.56;;;9.67;62.53
15604;BME280;7902;49.042;9.092;2023-02-01T08:23:13;99629.09;;;9.70;62.45
15604;BME280;7902;49.042;9.092;2023-02-01T08:25:39;99637.81;;;9.70;62.59
15604;BME280;7902;49.042;9.092;2023-02-01T08:28:06;99642.59;;;9.78;61.84
15604;BME280;7902;49.042;9.092;2023-02-01T08:30:32;99633.97;;;9.76;62.30
15604;BME280;7902;49.042;9.092;2023-02-01T08:32:58;99649.78;;;9.75;62.24
15604;BME280;7902;49.042;9.092;2023-02-01T08:35:24;99641.56;;;9.81;62.03
15604;BME280;7902;49.042;9.092;2023-02-01T08:37:50;99641.84;;;9.76;62.28
15604;BME280;7902;49.042;9.092;2023-02-01T08:40:16;99649.78;;;9.89;61.91
15604;BME280;7902;49.042;9.092;2023-02-01T08:42:42;99653.66;;;9.69;61.43
15604;BME280;7902;49.042;9.092;2023-02-01T08:45:26;99653.09;;;9.78;61.71
15604;BME280;7902;49.042;9.092;2023-02-01T08:47:54;99642.59;;;9.78;61.86
15604;BME280;7902;49.042;9.092;2023-02-01T08:50:21;99661.88;;;9.77;61.74
15604;BME280;7902;49.042;9.092;2023-02-01T08:52:47;99665.28;;;9.79;62.04
15604;BME280;7902;49.042;9.092;2023-02-01T08:55:13;99658.50;;;9.75;62.12
15604;BME280;7902;49.042;9.092;2023-02-01T08:57:40;99663.31;;;9.83;61.89
15604;BME280;7902;49.042;9.092;2023-02-01T09:00:08;99664.88;;;9.85;60.67
15604;BME280;7902;49.042;9.092;2023-02-01T09:02:36;99662.25;;;9.71;61.57
15604;BME280;7902;49.042;9.092;2023-02-01T09:05:04;99670.13;;;9.85;60.67
15604;BME280;7902;49.042;9.092;2023-02-01T09:07:30;99669.56;;;9.80;61.50
15604;BME280;7902;49.042;9.092;2023-02-01T09:09:56;99663.94;;;9.72;61.14
15604;BME280;7902;49.042;9.092;2023-02-01T09:12:25;99656.84;;;9.88;61.20
15604;BME280;7902;49.042;9.092;2023-02-01T09:14:51;99660.41;;;9.87;61.64
15604;BME280;7902;49.042;9.092;2023-02-01T09:17:17;99653.09;;;9.92;60.93
15604;BME280;7902;49.042;9.092;2023-02-01T09:19:43;99660.97;;;9.92;60.96
15604;BME280;7902;49.042;9.092;2023-02-01T09:22:09;99666.22;;;10.06;60.81
15604;BME280;7902;49.042;9.092;2023-02-01T09:24:35;99671.53;;;10.05;61.19
15604;BME280;7902;49.042;9.092;2023-02-01T09:27:00;99686.81;;;9.98;61.36
15604;BME280;7902;49.042;9.092;2023-02-01T09:29:26;99680.81;;;9.82;61.04
15604;BME280;7902;49.042;9.092;2023-02-01T09:31:52;99676.72;;;9.92;60.94
15604;BME280;7902;49.042;9.092;2023-02-01T09:34:18;99683.81;;;9.90;61.98
15604;BME280;7902;49.042;9.092;2023-02-01T09:36:44;99687.66;;;9.99;61.37
15604;BME280;7902;49.042;9.092;2023-02-01T09:39:10;99699.63;;;9.89;61.47
15604;BME280;7902;49.042;9.092;2023-02-01T09:41:56;99689.63;;;9.95;60.65
15604;BME280;7902;49.042;9.092;2023-02-01T09:44:48;99693.94;;;9.96;60.92
15604;BME280;7902;49.042;9.092;2023-02-01T09:47:21;99685.88;;;9.99;61.06
15604;BME280;7902;49.042;9.092;2023-02-01T09:52:43;99706.28;;;9.94;60.30
15604;BME280;7902;49.042;9.092;2023-02-01T09:58:27;99710.44;;;10.12;59.19
15604;BME280;7902;49.042;9.092;2023-02-01T10:00:58;99706.13;;;9.97;60.36
15604;BME280;7902;49.042;9.092;2023-02-01T10:03:28;99701.81;;;10.10;60.09
15604;BME280;7902;49.042;9.092;2023-02-01T10:06:25;99716.22;;;10.03;59.83
15604;BME280;7902;49.042;9.092;2023-02-01T10:15:03;99731.16;;;10.17;58.65
15604;BME280;7902;49.042;9.092;2023-02-01T10:20:30;99758.84;;;10.37;58.22
15604;BME280;7902;49.042;9.092;2023-02-01T10:23:15;99747.69;;;10.19;58.88
15604;BME280;7902;49.042;9.092;2023-02-01T10:25:53;99752.94;;;10.19;59.40
15604;BME280;7902;49.042;9.092;2023-02-01T10:28:20;99750.09;;;10.22;58.70
15604;BME280;7902;49.042;9.092;2023-02-01T10:30:48;99765.44;;;10.14;59.36
15604;BME280;7902;49.042;9.092;2023-02-01T10:33:22;99754.91;;;10.16;59.57
15604;BME280;7902;49.042;9.092;2023-02-01T10:35:55;99761.56;;;10.35;58.62
15604;BME280;7902;49.042;9.092;2023-02-01T10:38:29;99752.41;;;10.12;59.86
15604;BME280;7902;49.042;9.092;2023-02-01T10:41:01;99758.66;;;10.26;58.92
15604;BME280;7902;49.042;9.092;2023-02-01T10:43:28;99757.81;;;10.25;58.42
15604;BME280;7902;49.042;9.092;2023-02-01T10:45:54;99760.72;;;10.21;58.83
15604;BME280;7902;49.042;9.092;2023-02-01T10:48:20;99752.66;;;10.24;59.20
15604;BME280;7902;49.042;9.092;2023-02-01T10:50:54;99747.09;;;10.14;58.79
15604;BME280;7902;49.042;9.092;2023-02-01T10:56:10;99740.47;;;10.37;58.37
15604;BME280;7902;49.042;9.092;2023-02-01T10:58:43;99724.91;;;10.34;58.50
15604;BME280;7902;49.042;9.092;2023-02-01T11:01:20;99719.66;;;10.34;58.00
15604;BME280;7902;49.042;9.092;2023-02-01T11:03:58;99722.00;;;10.38;58.89
15604;BME280;7902;49.042;9.092;2023-02-01T11:06:30;99704.00;;;10.32;57.47
15604;BME280;7902;49.042;9.092;2023-02-01T11:08:59;99708.03;;;10.38;57.14
15604;BME280;7902;49.042;9.092;2023-02-01T11:11:26;99700.72;;;10.43;58.07
15604;BME280;7902;49.042;9.092;2023-02-01T11:14:01;99717.59;;;10.39;58.01
15604;BME280;7902;49.042;9.092;2023-02-01T11:16:39;99707.66;;;10.44;56.73
15604;BME280;7902;49.042;9.092;2023-02-01T11:19:06;99698.28;;;10.40;56.48
15604;BME280;7902;49.042;9.092;2023-02-01T11:21:35;99698.47;;;10.37;57.66
15604;BME280;7902;49.042;9.092;2023-02-01T11:24:03;99680.63;;;10.42;56.85
15604;BME280;7902;49.042;9.092;2023-02-01T11:26:30;99669.22;;;10.29;57.68
15604;BME280;7902;49.042;9.092;2023-02-01T11:29:02;99668.47;;;10.27;57.08
15604;BME280;7902;49.042;9.092;2023-02-01T11:31:28;99659.25;;;10.48;57.02
15604;BME280;7902;49.042;9.092;2023-02-01T11:33:59;99663.66;;;10.47;57.06
15604;BME280;7902;49.042;9.092;2023-02-01T11:36:29;99646.84;;;10.50;55.53
15604;BME280;7902;49.042;9.092;2023-02-01T11:39:18;99649.06;;;10.29;56.79
15604;BME280;7902;49.042;9.092;2023-02-01T11:42:12;99633.88;;;10.34;56.98
15604;BME280;7902;49.042;9.092;2023-02-01T11:44:41;99634.44;;;10.39;56.29
15604;BME280;7902;49.042;9.092;2023-02-01T11:49:46;99645.78;;;10.40;57.20
15604;BME280;7902;49.042;9.092;2023-02-01T11:52:41;99627.66;;;10.49;56.74
15604;BME280;7902;49.042;9.092;2023-02-01T12:06:21;99624.94;;;10.37;56.42
15604;BME280;7902;49.042;9.092;2023-02-01T12:12:01;99626.44;;;10.41;56.14
15604;BME280;7902;49.042;9.092;2023-02-01T12:22:58;99633.03;;;10.34;55.51
15604;BME280;7902;49.042;9.092;2023-02-01T12:25:35;99624.94;;;10.37;55.99
15604;BME280;7902;49.042;9.092;2023-02-01T12:30:58;99633.38;;;10.42;55.14
15604;BME280;7902;49.042;9.092;2023-02-01T12:36:43;99639.44;;;10.56;54.64
15604;BME280;7902;49.042;9.092;2023-02-01T12:39:31;99629.03;;;10.55;55.82
15604;BME280;7902;49.042;9.092;2023-02-01T12:42:03;99642.41;;;10.38;55.09
15604;BME280;7902;49.042;9.092;2023-02-01T12:49:48;99624.94;;;10.37;55.31
15604;BME280;7902;49.042;9.092;2023-02-01T12:52:37;99613.53;;;10.38;55.29
15604;BME280;7902;49.042;9.092;2023-02-01T12:55:21;99612.69;;;10.37;55.99
15604;BME280;7902;49.042;9.092;2023-02-01T12:58:04;99612.28;;;10.43;55.69
15604;BME280;7902;49.042;9.092;2023-02-01T13:00:37;99614.72;;;10.46;55.00
15604;BME280;7902;49.042;9.092;2023-02-01T13:03:26;99613.88;;;10.46;56.15
15604;BME280;7902;49.042;9.092;2023-02-01T13:08:26;99613.28;;;10.55;54.35
15604;BME280;7902;49.042;9.092;2023-02-01T13:11:04;99614.63;;;10.48;54.82
15604;BME280;7902;49.042;9.092;2023-02-01T13:16:21;99620.09;;;10.45;55.11
15604;BME280;7902;49.042;9.092;2023-02-01T13:19:00;99618.56;;;10.41;55.22
15604;BME280;7902;49.042;9.092;2023-02-01T13:21:34;99607.59;;;10.48;54.73
15604;BME280;7902;49.042;9.092;2023-02-01T13:24:03;99611.09;;;10.35;55.17
15604;BME280;7902;49.042;9.092;2023-02-01T13:26:29;99588.28;;;10.49;55.53
15604;BME280;7902;49.042;9.092;2023-02-01T13:29:04;99588.06;;;10.52;56.13
15604;BME280;7902;49.042;9.092;2023-02-01T13:32:13;99590.28;;;10.32;56.03
15604;BME280;7902;49.042;9.092;2023-02-01T13:43:42;99580.16;;;10.40;55.24
15604;BME280;7902;49.042;9.092;2023-02-01T13:46:10;99576.19;;;10.47;55.37
15604;BME280;7902;49.042;9.092;2023-02-01T13:51:12;99575.16;;;10.49;56.58
15604;BME280;7902;49.042;9.092;2023-02-01T13:53:45;99564.56;;;10.37;56.75
15604;BME280;7902;49.042;9.092;2023-02-01T13:56:17;99551.59;;;10.48;55.76
15604;BME280;7902;49.042;9.092;2023-02-01T13:58:46;99568.50;;;10.44;56.42
15604;BME280;7902;49.042;9.092;2023-02-01T14:09:19;99566.44;;;10.49;55.96
15604;BME280;7902;49.042;9.092;2023-02-01T14:21:53;99580.34;;;10.64;55.27
15604;BME280;7902;49.042;9.092;2023-02-01T14:24:29;99588.13;;;10.65;54.35
15604;BME280;7902;49.042;9.092;2023-02-01T14:26:58;99590.34;;;10.44;55.13
15604;BME280;7902;49.042;9.092;2023-02-01T14:29:31;99597.44;;;10.30;55.67
15604;BME280;7902;49.042;9.092;2023-02-01T14:32:19;99605.66;;;10.38;56.02
15604;BME280;7902;49.042;9.092;2023-02-01T14:42:24;99596.63;;;10.42;56.11
15604;BME280;7902;49.042;9.092;2023-02-01T14:44:52;99605.78;;;10.63;55.31
15604;BME280;7902;49.042;9.092;2023-02-01T14:53:04;99602.47;;;10.33;56.12
15604;BME280;7902;49.042;9.092;2023-02-01T14:56:04;99591.97;;;10.33;55.28
15604;BME280;7902;49.042;9.092;2023-02-01T14:58:55;99592.16;;;10.30;55.37
15604;BME280;7902;49.042;9.092;2023-02-01T15:01:33;99606.69;;;10.35;54.67
15604;BME280;7902;49.042;9.092;2023-02-01T15:04:10;99599.13;;;10.31;55.72
15604;BME280;7902;49.042;9.092;2023-02-01T15:06:49;99599.47;;;10.39;54.44
15604;BME280;7902;49.042;9.092;2023-02-01T15:09:21;99610.16;;;10.36;54.85
15604;BME280;7902;49.042;9.092;2023-02-01T15:12:15;99601.72;;;10.45;54.85
15604;BME280;7902;49.042;9.092;2023-02-01T15:14:43;99605.00;;;10.34;55.04
15604;BME280;7902;49.042;9.092;2023-02-01T15:17:21;99598.56;;;10.26;54.92
15604;BME280;7902;49.042;9.092;2023-02-01T15:19:54;99600.34;;;10.25;54.94
15604;BME280;7902;49.042;9.092;2023-02-01T15:22:21;99598.53;;;10.40;54.59
15604;BME280;7902;49.042;9.092;2023-02-01T15:24:58;99602.00;;;10.40;55.19
15604;BME280;7902;49.042;9.092;2023-02-01T15:27:25;99595.94;;;10.26;55.15
15604;BME280;7902;49.042;9.092;2023-02-01T15:29:51;99607.72;;;10.33;55.29
15604;BME280;7902;49.042;9.092;2023-02-01T15:32:31;99614.84;;;10.45;55.81
15604;BME280;7902;49.042;9.092;2023-02-01T15:34:58;99603.38;;;10.46;54.24
15604;BME280;7902;49.042;9.092;2023-02-01T15:37:26;99600.78;;;10.32;55.22
15604;BME280;7902;49.042;9.092;2023-02-01T15:40:22;99611.47;;;10.29;54.72
15604;BME280;7902;49.042;9.092;2023-02-01T15:42:51;99606.41;;;10.40;54.63
15604;BME280;7902;49.042;9.092;2023-02-01T15:45:25;99619.72;;;10.23;54.79